x

Ilm3 - 27 Miles Se Of Wrightsville Beach, Nc (41037) Weather Station

3:00pm - Wed 1st Oct 2014 All times are EDT. -4 hours from GMT.

  • Wind
    7mph, 11mph gusts
  • Sea Temp 80°f
  • Air Temp 71°f
  • Sea Pressure 1014.8mb
  • Ilm3 - 27 Miles Se Of Wrightsville Beach, Nc
  • Ilm3 - 27 Miles Se Of Wrightsville Beach, Nc

More Historic Weather Station data

Upgrade to MSW Pro to gain access to the past 30 days of data for over 8000 Wavebouys and Weather Stations around the globe.

Join Pro

Comparision Forecast

View Surf forecast
   
Wed 10/01 3:00pm 7 11 mph 1014.8mb 80f 71f
2:00pm 11 13 mph 1014.9mb 80f 70f
1:00pm 9 11 mph 1015.3mb 80f 70f
12:00pm 13 16 mph 1015.3mb 80f 70f
11:00am 13
mph
1015.5mb 79f 70f
10:00am 13 16 mph 1014.7mb 79f 70f
9:00am 16 18 mph 1013.9mb 79f 70f
8:00am 16 18 mph 1013.4mb 79f 70f
7:00am 16 18 mph 1012.9mb 79f 70f
6:00am 18
mph
1012.3mb 79f 70f
5:00am 13 16 mph 1012.1mb 79f 71f
4:00am 13 16 mph 1011.5mb 79f 70f
3:00am 16 18 mph 1011.3mb 79f 71f
2:00am 16 18 mph 1011.7mb 80f 71f
1:00am 13 16 mph 1011.7mb 80f 72f
12:00am 13 16 mph 1011.6mb 80f 72f
Tue 09/30 11:00pm 13 16 mph 1011.4mb 80f 73f
10:00pm 13 16 mph 1011.2mb 80f 73f
9:00pm 13 18 mph 1010.9mb 80f 74f
8:00pm 13 16 mph 1010.8mb 79f 74f
7:00pm 11 13 mph 1010.3mb 80f 73f
6:00pm 11 13 mph 1010mb 80f 74f
5:00pm 16 20 mph 1009.9mb 80f 73f
4:00pm 16 18 mph 1009.7mb 80f 73f
3:00pm 18 20 mph 1009.7mb 80f 73f
2:00pm 20 22 mph 1010mb 80f 71f
1:00pm 18 20 mph 1011.1mb 80f 71f
12:00pm 18 22 mph 1011.3mb 80f 70f
11:00am 18 20 mph 1011.3mb 80f 69f
10:00am 16 20 mph 1011.5mb 79f 70f
9:00am 20 22 mph 1011.4mb 79f 69f
8:00am 20
mph
1011.4mb 79f 70f
7:00am 16 18 mph 1011.1mb 79f 71f
6:00am 16 20 mph 1010.8mb 80f 71f
5:00am 20 22 mph 1010.7mb 80f 70f
4:00am 16 20 mph 1011.3mb 80f 69f
3:00am 16 18 mph 1011.8mb 80f 70f
2:00am 16 18 mph 1012.5mb 80f 69f
1:00am 20 22 mph 1012.1mb 80f 69f
12:00am 13 16 mph 1012.9mb 80f 70f
Mon 09/29 11:00pm 18 20 mph 1013.5mb 80f 70f
10:00pm 11 13 mph 1013.5mb 80f 70f
9:00pm 16 18 mph 1013.5mb 80f 70f
8:00pm 16 18 mph 1013.7mb 80f 70f
7:00pm 11 13 mph 1014mb 80f 71f
6:00pm 11 16 mph 1014mb 80f 72f
5:00pm 16 18 mph 1013.6mb 80f 71f
4:00pm 13 16 mph 1013.5mb 80f 72f
3:00pm 16 18 mph 1013.6mb 80f 72f
2:00pm 13 16 mph 1014mb 80f 72f
1:00pm 16 20 mph 1014.8mb 80f 72f
12:00pm 13 16 mph 1015.2mb 80f 73f
11:00am 11
mph
1015.6mb 80f 73f
10:00am 11 13 mph 1015.5mb 80f 73f
9:00am 11 13 mph 1015.4mb 80f 73f
8:00am 13 16 mph 1015.4mb 80f 72f
7:00am 11
mph
1015.3mb 80f 73f
6:00am 9 11 mph 1015.5mb 80f 73f
5:00am 11 13 mph 1015.2mb 80f 73f
4:00am 11 16 mph 1015.2mb 80f 73f
3:00am 9 11 mph 1015.8mb 80f 73f
2:00am 7 9 mph 1016.3mb 80f 74f
1:00am 9 11 mph 1016.7mb 80f 73f
Sun 09/28 11:00pm 11 13 mph 1017.4mb 80f 74f
10:00pm 13 16 mph 1017.4mb 80f 74f
9:00pm 11 13 mph 1017.7mb 80f 74f
8:00pm 11 13 mph 1017.7mb 80f 73f
7:00pm 11 13 mph 1017.5mb 80f 73f
6:00pm 11 13 mph 1017.3mb 80f 73f
5:00pm 11 13 mph 1017.2mb 80f 73f
4:00pm 11 13 mph 1017.8mb 80f 73f
3:00pm 11 13 mph 1018.3mb 80f 74f
2:00pm 16 18 mph 1018.5mb 80f 73f
1:00pm 16 22 mph 1019.5mb 80f 73f
12:00pm 18 20 mph 1019.8mb 80f 73f
11:00am 18 20 mph 1020mb 80f 73f
10:00am 18 20 mph 1020.1mb 80f 72f
9:00am 18 20 mph 1019.9mb 80f 72f
8:00am 20 22 mph 1019.5mb 80f 71f
7:00am 18 22 mph 1019.4mb 80f 72f
6:00am 18 20 mph 1019.2mb 80f 72f
5:00am 18 22 mph 1019.2mb 80f 72f
4:00am 18 22 mph 1019.1mb 80f 72f
3:00am 20 25 mph 1019.1mb 80f 72f
2:00am 18 22 mph 1019.2mb 80f 72f
1:00am 22 27 mph 1019.5mb 80f 72f
12:00am 20 22 mph 1019.8mb 80f 71f
Sat 09/27 11:00pm 20 25 mph 1020.4mb 80f 72f
10:00pm 20 22 mph 1019.9mb 80f 72f
9:00pm 22 27 mph 1019.6mb 80f 72f